sensor_id;sensor_type;location;lat;lon;timestamp;P1;durP1;ratioP1;P2;durP2;ratioP2
50591;SDS011;36548;50.506;30.834;2023-01-28T00:00:06;22.72;;;17.37;;
50591;SDS011;36548;50.506;30.834;2023-01-28T00:01:19;21.60;;;17.77;;
50591;SDS011;36548;50.506;30.834;2023-01-28T00:02:28;22.63;;;17.22;;
50591;SDS011;36548;50.506;30.834;2023-01-28T00:03:38;22.72;;;18.47;;
50591;SDS011;36548;50.506;30.834;2023-01-28T00:04:47;23.07;;;18.78;;
50591;SDS011;36548;50.506;30.834;2023-01-28T00:06:03;22.35;;;18.30;;
50591;SDS011;36548;50.506;30.834;2023-01-28T00:07:22;25.00;;;19.92;;
50591;SDS011;36548;50.506;30.834;2023-01-28T00:08:31;24.15;;;20.10;;
50591;SDS011;36548;50.506;30.834;2023-01-28T00:09:50;24.70;;;21.10;;
50591;SDS011;36548;50.506;30.834;2023-01-28T00:11:00;26.25;;;21.92;;
50591;SDS011;36548;50.506;30.834;2023-01-28T00:12:10;25.83;;;22.78;;
50591;SDS011;36548;50.506;30.834;2023-01-28T00:13:19;26.48;;;21.18;;
50591;SDS011;36548;50.506;30.834;2023-01-28T00:14:28;29.02;;;24.48;;
50591;SDS011;36548;50.506;30.834;2023-01-28T00:15:38;30.12;;;24.30;;
50591;SDS011;36548;50.506;30.834;2023-01-28T00:16:53;28.56;;;24.42;;
50591;SDS011;36548;50.506;30.834;2023-01-28T00:18:02;29.50;;;24.22;;
50591;SDS011;36548;50.506;30.834;2023-01-28T00:20:21;28.67;;;22.30;;
50591;SDS011;36548;50.506;30.834;2023-01-28T00:21:31;27.43;;;22.15;;
50591;SDS011;36548;50.506;30.834;2023-01-28T00:23:55;27.52;;;22.43;;
50591;SDS011;36548;50.506;30.834;2023-01-28T00:25:06;30.03;;;23.88;;
50591;SDS011;36548;50.506;30.834;2023-01-28T00:26:16;28.88;;;24.30;;
50591;SDS011;36548;50.506;30.834;2023-01-28T00:27:42;23.82;;;18.67;;
50591;SDS011;36548;50.506;30.834;2023-01-28T00:30:03;20.70;;;16.60;;
50591;SDS011;36548;50.506;30.834;2023-01-28T00:31:14;21.87;;;15.62;;
50591;SDS011;36548;50.506;30.834;2023-01-28T00:32:27;21.90;;;15.77;;
50591;SDS011;36548;50.506;30.834;2023-01-28T00:33:36;20.30;;;16.25;;
50591;SDS011;36548;50.506;30.834;2023-01-28T00:34:46;22.40;;;16.60;;
50591;SDS011;36548;50.506;30.834;2023-01-28T00:36:01;21.50;;;16.47;;
50591;SDS011;36548;50.506;30.834;2023-01-28T00:37:12;20.65;;;17.18;;
50591;SDS011;36548;50.506;30.834;2023-01-28T00:38:22;20.43;;;16.55;;
50591;SDS011;36548;50.506;30.834;2023-01-28T00:39:31;21.90;;;17.75;;
50591;SDS011;36548;50.506;30.834;2023-01-28T00:40:41;21.53;;;16.87;;
50591;SDS011;36548;50.506;30.834;2023-01-28T00:41:57;22.02;;;16.77;;
50591;SDS011;36548;50.506;30.834;2023-01-28T00:43:07;20.68;;;17.02;;
50591;SDS011;36548;50.506;30.834;2023-01-28T00:44:15;23.62;;;17.92;;
50591;SDS011;36548;50.506;30.834;2023-01-28T00:45:24;21.03;;;16.98;;
50591;SDS011;36548;50.506;30.834;2023-01-28T00:46:35;21.42;;;18.40;;
50591;SDS011;36548;50.506;30.834;2023-01-28T00:47:44;23.08;;;17.68;;
50591;SDS011;36548;50.506;30.834;2023-01-28T00:50:04;23.02;;;18.67;;
50591;SDS011;36548;50.506;30.834;2023-01-28T00:51:14;22.65;;;18.80;;
50591;SDS011;36548;50.506;30.834;2023-01-28T00:52:25;24.05;;;20.02;;
50591;SDS011;36548;50.506;30.834;2023-01-28T00:53:35;27.43;;;22.42;;
50591;SDS011;36548;50.506;30.834;2023-01-28T00:54:46;25.45;;;22.03;;
50591;SDS011;36548;50.506;30.834;2023-01-28T00:55:56;27.20;;;23.83;;
50591;SDS011;36548;50.506;30.834;2023-01-28T00:57:11;26.08;;;21.88;;
50591;SDS011;36548;50.506;30.834;2023-01-28T00:58:20;24.33;;;19.80;;
50591;SDS011;36548;50.506;30.834;2023-01-28T01:00:39;27.80;;;21.10;;
50591;SDS011;36548;50.506;30.834;2023-01-28T01:01:50;28.63;;;22.68;;
50591;SDS011;36548;50.506;30.834;2023-01-28T01:03:01;29.80;;;22.60;;
50591;SDS011;36548;50.506;30.834;2023-01-28T01:04:10;29.07;;;23.78;;
50591;SDS011;36548;50.506;30.834;2023-01-28T01:05:20;30.05;;;24.18;;
50591;SDS011;36548;50.506;30.834;2023-01-28T01:06:30;27.50;;;22.78;;
50591;SDS011;36548;50.506;30.834;2023-01-28T01:07:43;29.90;;;23.98;;
50591;SDS011;36548;50.506;30.834;2023-01-28T01:08:52;27.37;;;21.90;;
50591;SDS011;36548;50.506;30.834;2023-01-28T01:11:19;28.17;;;23.18;;
50591;SDS011;36548;50.506;30.834;2023-01-28T01:12:29;29.20;;;22.88;;
50591;SDS011;36548;50.506;30.834;2023-01-28T01:13:38;29.50;;;23.65;;
50591;SDS011;36548;50.506;30.834;2023-01-28T01:14:49;30.32;;;23.97;;
50591;SDS011;36548;50.506;30.834;2023-01-28T01:16:02;25.28;;;20.45;;
50591;SDS011;36548;50.506;30.834;2023-01-28T01:17:12;25.60;;;19.17;;
50591;SDS011;36548;50.506;30.834;2023-01-28T01:18:21;24.02;;;18.78;;
50591;SDS011;36548;50.506;30.834;2023-01-28T01:19:31;22.77;;;17.42;;
50591;SDS011;36548;50.506;30.834;2023-01-28T01:20:40;21.32;;;16.92;;
50591;SDS011;36548;50.506;30.834;2023-01-28T01:21:57;22.57;;;17.00;;
50591;SDS011;36548;50.506;30.834;2023-01-28T01:23:06;20.97;;;16.37;;
50591;SDS011;36548;50.506;30.834;2023-01-28T01:24:15;21.60;;;17.34;;
50591;SDS011;36548;50.506;30.834;2023-01-28T01:25:25;21.12;;;17.77;;
50591;SDS011;36548;50.506;30.834;2023-01-28T01:26:34;22.72;;;19.15;;
50591;SDS011;36548;50.506;30.834;2023-01-28T01:27:45;23.00;;;17.48;;
50591;SDS011;36548;50.506;30.834;2023-01-28T01:28:58;25.28;;;19.40;;
50591;SDS011;36548;50.506;30.834;2023-01-28T01:30:09;22.65;;;16.70;;
50591;SDS011;36548;50.506;30.834;2023-01-28T01:31:20;22.10;;;17.33;;
50591;SDS011;36548;50.506;30.834;2023-01-28T01:32:30;20.43;;;16.45;;
50591;SDS011;36548;50.506;30.834;2023-01-28T01:33:43;20.18;;;15.70;;
50591;SDS011;36548;50.506;30.834;2023-01-28T01:34:54;20.30;;;15.05;;
50591;SDS011;36548;50.506;30.834;2023-01-28T01:36:06;16.15;;;14.23;;
50591;SDS011;36548;50.506;30.834;2023-01-28T01:37:16;17.50;;;14.20;;
50591;SDS011;36548;50.506;30.834;2023-01-28T01:38:25;18.73;;;15.52;;
50591;SDS011;36548;50.506;30.834;2023-01-28T01:39:35;22.80;;;16.70;;
50591;SDS011;36548;50.506;30.834;2023-01-28T01:40:45;19.98;;;16.83;;
50591;SDS011;36548;50.506;30.834;2023-01-28T01:41:58;20.67;;;16.97;;
50591;SDS011;36548;50.506;30.834;2023-01-28T01:43:14;19.75;;;17.53;;
50591;SDS011;36548;50.506;30.834;2023-01-28T01:46:18;22.73;;;18.33;;
50591;SDS011;36548;50.506;30.834;2023-01-28T01:47:46;21.43;;;17.62;;
50591;SDS011;36548;50.506;30.834;2023-01-28T01:48:56;23.98;;;16.85;;
50591;SDS011;36548;50.506;30.834;2023-01-28T01:50:15;20.63;;;16.20;;
50591;SDS011;36548;50.506;30.834;2023-01-28T01:51:28;17.28;;;14.18;;
50591;SDS011;36548;50.506;30.834;2023-01-28T01:52:47;19.48;;;15.15;;
50591;SDS011;36548;50.506;30.834;2023-01-28T01:53:58;19.10;;;14.03;;
50591;SDS011;36548;50.506;30.834;2023-01-28T05:51:12;40.22;;;28.78;;
50591;SDS011;36548;50.506;30.834;2023-01-28T05:52:28;36.50;;;26.50;;
50591;SDS011;36548;50.506;30.834;2023-01-28T05:53:38;27.92;;;21.77;;
50591;SDS011;36548;50.506;30.834;2023-01-28T05:54:51;27.65;;;20.60;;
50591;SDS011;36548;50.506;30.834;2023-01-28T05:56:00;26.97;;;19.38;;
50591;SDS011;36548;50.506;30.834;2023-01-28T05:57:13;26.33;;;18.95;;
50591;SDS011;36548;50.506;30.834;2023-01-28T05:58:22;24.25;;;17.90;;
50591;SDS011;36548;50.506;30.834;2023-01-28T05:59:33;26.02;;;18.20;;
50591;SDS011;36548;50.506;30.834;2023-01-28T06:00:42;24.30;;;17.22;;
50591;SDS011;36548;50.506;30.834;2023-01-28T06:01:52;21.73;;;17.08;;
50591;SDS011;36548;50.506;30.834;2023-01-28T06:03:02;25.00;;;18.95;;
50591;SDS011;36548;50.506;30.834;2023-01-28T06:04:18;22.35;;;16.90;;
50591;SDS011;36548;50.506;30.834;2023-01-28T06:05:27;24.67;;;17.38;;
50591;SDS011;36548;50.506;30.834;2023-01-28T06:06:37;24.72;;;17.97;;
50591;SDS011;36548;50.506;30.834;2023-01-28T06:07:52;24.62;;;17.57;;
50591;SDS011;36548;50.506;30.834;2023-01-28T06:09:02;25.93;;;18.07;;
50591;SDS011;36548;50.506;30.834;2023-01-28T06:10:13;23.95;;;17.05;;
50591;SDS011;36548;50.506;30.834;2023-01-28T06:11:31;25.50;;;19.00;;
50591;SDS011;36548;50.506;30.834;2023-01-28T06:12:43;23.12;;;18.08;;
50591;SDS011;36548;50.506;30.834;2023-01-28T06:14:00;25.33;;;18.52;;
50591;SDS011;36548;50.506;30.834;2023-01-28T06:15:16;25.73;;;18.63;;
50591;SDS011;36548;50.506;30.834;2023-01-28T06:16:27;23.95;;;17.20;;
50591;SDS011;36548;50.506;30.834;2023-01-28T06:17:46;25.80;;;18.60;;
50591;SDS011;36548;50.506;30.834;2023-01-28T06:18:57;24.70;;;18.15;;
50591;SDS011;36548;50.506;30.834;2023-01-28T06:20:06;21.05;;;16.68;;
50591;SDS011;36548;50.506;30.834;2023-01-28T06:21:19;20.48;;;15.00;;
50591;SDS011;36548;50.506;30.834;2023-01-28T06:22:28;22.05;;;17.00;;
50591;SDS011;36548;50.506;30.834;2023-01-28T06:23:37;21.97;;;16.95;;
50591;SDS011;36548;50.506;30.834;2023-01-28T06:24:48;21.98;;;16.52;;
50591;SDS011;36548;50.506;30.834;2023-01-28T06:25:58;21.97;;;16.95;;
50591;SDS011;36548;50.506;30.834;2023-01-28T06:27:08;22.50;;;18.15;;
50591;SDS011;36548;50.506;30.834;2023-01-28T06:28:17;21.57;;;17.52;;
50591;SDS011;36548;50.506;30.834;2023-01-28T06:29:26;24.60;;;19.77;;
50591;SDS011;36548;50.506;30.834;2023-01-28T06:30:35;24.45;;;18.38;;
50591;SDS011;36548;50.506;30.834;2023-01-28T06:31:44;22.25;;;17.15;;
50591;SDS011;36548;50.506;30.834;2023-01-28T06:32:54;22.47;;;16.98;;
50591;SDS011;36548;50.506;30.834;2023-01-28T06:35:14;23.55;;;15.52;;
50591;SDS011;36548;50.506;30.834;2023-01-28T06:36:29;19.87;;;14.60;;
50591;SDS011;36548;50.506;30.834;2023-01-28T06:37:38;23.80;;;16.15;;
50591;SDS011;36548;50.506;30.834;2023-01-28T06:39:58;19.15;;;15.28;;
50591;SDS011;36548;50.506;30.834;2023-01-28T06:41:07;18.28;;;14.68;;
50591;SDS011;36548;50.506;30.834;2023-01-28T06:42:17;19.88;;;15.08;;
50591;SDS011;36548;50.506;30.834;2023-01-28T06:43:32;18.37;;;14.60;;
50591;SDS011;36548;50.506;30.834;2023-01-28T06:44:40;21.37;;;16.55;;
50591;SDS011;36548;50.506;30.834;2023-01-28T06:45:49;21.38;;;15.86;;
50591;SDS011;36548;50.506;30.834;2023-01-28T06:46:58;20.22;;;15.68;;
50591;SDS011;36548;50.506;30.834;2023-01-28T06:48:06;21.80;;;15.73;;
50591;SDS011;36548;50.506;30.834;2023-01-28T06:49:16;18.65;;;15.80;;
50591;SDS011;36548;50.506;30.834;2023-01-28T06:50:27;20.65;;;15.40;;
50591;SDS011;36548;50.506;30.834;2023-01-28T06:51:37;23.62;;;17.18;;
50591;SDS011;36548;50.506;30.834;2023-01-28T06:52:52;25.37;;;17.35;;
50591;SDS011;36548;50.506;30.834;2023-01-28T06:54:01;28.55;;;20.05;;
50591;SDS011;36548;50.506;30.834;2023-01-28T06:55:10;30.82;;;21.57;;
50591;SDS011;36548;50.506;30.834;2023-01-28T06:56:19;27.23;;;21.10;;
50591;SDS011;36548;50.506;30.834;2023-01-28T06:57:29;29.38;;;22.42;;
50591;SDS011;36548;50.506;30.834;2023-01-28T06:58:40;29.12;;;22.93;;
50591;SDS011;36548;50.506;30.834;2023-01-28T06:59:49;30.20;;;23.03;;
50591;SDS011;36548;50.506;30.834;2023-01-28T07:00:57;32.00;;;24.50;;
50591;SDS011;36548;50.506;30.834;2023-01-28T07:02:08;33.67;;;26.30;;
50591;SDS011;36548;50.506;30.834;2023-01-28T07:03:20;30.27;;;23.45;;
50591;SDS011;36548;50.506;30.834;2023-01-28T07:04:30;32.32;;;24.94;;
50591;SDS011;36548;50.506;30.834;2023-01-28T07:05:39;29.52;;;22.38;;
50591;SDS011;36548;50.506;30.834;2023-01-28T07:06:48;29.37;;;23.97;;
50591;SDS011;36548;50.506;30.834;2023-01-28T07:07:57;33.52;;;25.58;;
50591;SDS011;36548;50.506;30.834;2023-01-28T07:09:08;32.70;;;25.43;;
50591;SDS011;36548;50.506;30.834;2023-01-28T07:10:17;27.87;;;21.22;;
50591;SDS011;36548;50.506;30.834;2023-01-28T07:11:26;29.35;;;22.32;;
50591;SDS011;36548;50.506;30.834;2023-01-28T07:12:35;29.28;;;23.08;;
50591;SDS011;36548;50.506;30.834;2023-01-28T07:13:45;30.70;;;23.20;;
50591;SDS011;36548;50.506;30.834;2023-01-28T07:14:54;31.90;;;24.05;;
50591;SDS011;36548;50.506;30.834;2023-01-28T07:16:03;30.18;;;23.08;;
50591;SDS011;36548;50.506;30.834;2023-01-28T07:17:14;31.08;;;24.60;;
50591;SDS011;36548;50.506;30.834;2023-01-28T07:18:23;32.27;;;24.52;;
50591;SDS011;36548;50.506;30.834;2023-01-28T07:19:34;27.56;;;21.38;;
50591;SDS011;36548;50.506;30.834;2023-01-28T07:20:43;31.22;;;23.85;;
50591;SDS011;36548;50.506;30.834;2023-01-28T07:21:53;29.80;;;22.33;;
50591;SDS011;36548;50.506;30.834;2023-01-28T07:23:03;28.98;;;20.83;;
50591;SDS011;36548;50.506;30.834;2023-01-28T07:24:12;29.02;;;21.00;;
50591;SDS011;36548;50.506;30.834;2023-01-28T07:25:21;26.57;;;19.28;;
50591;SDS011;36548;50.506;30.834;2023-01-28T07:26:31;23.72;;;18.93;;
50591;SDS011;36548;50.506;30.834;2023-01-28T07:27:50;25.80;;;20.85;;
50591;SDS011;36548;50.506;30.834;2023-01-28T07:29:00;24.65;;;18.45;;
50591;SDS011;36548;50.506;30.834;2023-01-28T07:30:10;29.70;;;20.85;;
50591;SDS011;36548;50.506;30.834;2023-01-28T07:31:19;28.75;;;20.33;;
50591;SDS011;36548;50.506;30.834;2023-01-28T07:32:29;29.38;;;19.83;;
50591;SDS011;36548;50.506;30.834;2023-01-28T07:33:39;24.85;;;19.15;;
50591;SDS011;36548;50.506;30.834;2023-01-28T07:34:48;25.77;;;19.75;;
50591;SDS011;36548;50.506;30.834;2023-01-28T07:35:57;26.28;;;19.22;;
50591;SDS011;36548;50.506;30.834;2023-01-28T07:37:06;27.37;;;21.30;;
50591;SDS011;36548;50.506;30.834;2023-01-28T07:38:15;28.58;;;22.18;;
50591;SDS011;36548;50.506;30.834;2023-01-28T07:39:24;27.28;;;22.05;;
50591;SDS011;36548;50.506;30.834;2023-01-28T07:40:33;27.12;;;22.92;;
50591;SDS011;36548;50.506;30.834;2023-01-28T07:41:43;30.72;;;23.90;;
50591;SDS011;36548;50.506;30.834;2023-01-28T07:42:58;29.88;;;23.00;;
50591;SDS011;36548;50.506;30.834;2023-01-28T07:44:08;29.98;;;22.82;;
50591;SDS011;36548;50.506;30.834;2023-01-28T07:45:17;31.20;;;24.08;;
50591;SDS011;36548;50.506;30.834;2023-01-28T07:46:27;30.08;;;23.30;;
50591;SDS011;36548;50.506;30.834;2023-01-28T07:47:36;30.87;;;24.75;;
50591;SDS011;36548;50.506;30.834;2023-01-28T07:48:45;27.03;;;20.22;;
50591;SDS011;36548;50.506;30.834;2023-01-28T07:49:53;26.73;;;20.15;;
50591;SDS011;36548;50.506;30.834;2023-01-28T07:51:04;24.70;;;19.90;;
50591;SDS011;36548;50.506;30.834;2023-01-28T07:52:14;20.07;;;16.18;;
50591;SDS011;36548;50.506;30.834;2023-01-28T07:53:23;25.70;;;19.37;;
50591;SDS011;36548;50.506;30.834;2023-01-28T07:54:39;26.83;;;20.05;;
50591;SDS011;36548;50.506;30.834;2023-01-28T07:55:47;26.70;;;21.02;;
50591;SDS011;36548;50.506;30.834;2023-01-28T07:56:57;24.08;;;20.90;;
50591;SDS011;36548;50.506;30.834;2023-01-28T07:58:07;27.63;;;21.52;;
50591;SDS011;36548;50.506;30.834;2023-01-28T07:59:23;28.95;;;21.75;;
50591;SDS011;36548;50.506;30.834;2023-01-28T08:00:33;29.95;;;22.87;;
50591;SDS011;36548;50.506;30.834;2023-01-28T08:01:44;29.18;;;22.97;;
50591;SDS011;36548;50.506;30.834;2023-01-28T08:02:56;27.40;;;22.95;;
50591;SDS011;36548;50.506;30.834;2023-01-28T08:04:14;28.65;;;22.20;;
50591;SDS011;36548;50.506;30.834;2023-01-28T08:05:23;30.22;;;23.20;;
50591;SDS011;36548;50.506;30.834;2023-01-28T08:06:40;27.97;;;20.90;;
50591;SDS011;36548;50.506;30.834;2023-01-28T08:07:49;26.62;;;20.02;;
50591;SDS011;36548;50.506;30.834;2023-01-28T08:09:00;26.08;;;20.90;;
50591;SDS011;36548;50.506;30.834;2023-01-28T08:10:11;29.20;;;22.30;;
50591;SDS011;36548;50.506;30.834;2023-01-28T08:11:26;26.68;;;20.68;;
50591;SDS011;36548;50.506;30.834;2023-01-28T08:12:35;24.08;;;20.80;;
50591;SDS011;36548;50.506;30.834;2023-01-28T08:13:43;23.35;;;17.95;;
50591;SDS011;36548;50.506;30.834;2023-01-28T08:14:52;23.53;;;19.18;;
50591;SDS011;36548;50.506;30.834;2023-01-28T08:16:04;24.07;;;19.18;;
50591;SDS011;36548;50.506;30.834;2023-01-28T08:17:14;24.62;;;18.10;;
50591;SDS011;36548;50.506;30.834;2023-01-28T08:18:23;23.15;;;16.85;;
50591;SDS011;36548;50.506;30.834;2023-01-28T08:19:32;21.15;;;16.15;;
50591;SDS011;36548;50.506;30.834;2023-01-28T08:20:41;18.83;;;14.02;;
50591;SDS011;36548;50.506;30.834;2023-01-28T08:21:58;16.28;;;13.42;;
50591;SDS011;36548;50.506;30.834;2023-01-28T08:23:11;19.47;;;15.17;;
50591;SDS011;36548;50.506;30.834;2023-01-28T08:24:24;17.47;;;13.93;;
50591;SDS011;36548;50.506;30.834;2023-01-28T08:25:33;21.55;;;17.37;;
50591;SDS011;36548;50.506;30.834;2023-01-28T08:26:43;20.83;;;17.17;;
50591;SDS011;36548;50.506;30.834;2023-01-28T08:27:53;22.80;;;16.25;;
50591;SDS011;36548;50.506;30.834;2023-01-28T08:29:02;19.22;;;16.32;;
50591;SDS011;36548;50.506;30.834;2023-01-28T08:30:14;22.03;;;17.00;;
50591;SDS011;36548;50.506;30.834;2023-01-28T08:31:25;24.42;;;18.32;;
50591;SDS011;36548;50.506;30.834;2023-01-28T08:32:36;25.35;;;20.03;;
50591;SDS011;36548;50.506;30.834;2023-01-28T08:33:45;26.82;;;21.10;;
50591;SDS011;36548;50.506;30.834;2023-01-28T08:34:53;22.15;;;19.67;;
50591;SDS011;36548;50.506;30.834;2023-01-28T08:36:09;23.97;;;19.77;;
50591;SDS011;36548;50.506;30.834;2023-01-28T08:37:17;29.65;;;21.58;;
50591;SDS011;36548;50.506;30.834;2023-01-28T08:38:26;24.37;;;19.52;;
50591;SDS011;36548;50.506;30.834;2023-01-28T08:39:35;26.82;;;21.72;;
50591;SDS011;36548;50.506;30.834;2023-01-28T08:40:45;25.80;;;21.23;;
50591;SDS011;36548;50.506;30.834;2023-01-28T08:41:56;26.68;;;20.02;;
50591;SDS011;36548;50.506;30.834;2023-01-28T08:43:11;27.15;;;21.62;;
50591;SDS011;36548;50.506;30.834;2023-01-28T08:44:20;25.33;;;20.17;;
50591;SDS011;36548;50.506;30.834;2023-01-28T08:45:29;25.75;;;21.18;;
50591;SDS011;36548;50.506;30.834;2023-01-28T08:46:39;28.13;;;22.07;;
50591;SDS011;36548;50.506;30.834;2023-01-28T08:49:04;23.12;;;18.00;;
50591;SDS011;36548;50.506;30.834;2023-01-28T08:50:13;21.70;;;16.40;;
50591;SDS011;36548;50.506;30.834;2023-01-28T08:51:24;22.38;;;17.68;;
50591;SDS011;36548;50.506;30.834;2023-01-28T08:52:33;21.25;;;17.55;;
50591;SDS011;36548;50.506;30.834;2023-01-28T08:53:43;24.48;;;18.50;;
50591;SDS011;36548;50.506;30.834;2023-01-28T08:56:08;23.22;;;19.05;;
50591;SDS011;36548;50.506;30.834;2023-01-28T08:57:17;24.23;;;18.97;;
50591;SDS011;36548;50.506;30.834;2023-01-28T08:58:26;24.75;;;18.65;;
50591;SDS011;36548;50.506;30.834;2023-01-28T08:59:35;23.18;;;18.42;;
50591;SDS011;36548;50.506;30.834;2023-01-28T09:00:46;22.82;;;18.48;;
50591;SDS011;36548;50.506;30.834;2023-01-28T09:01:56;26.20;;;20.45;;
50591;SDS011;36548;50.506;30.834;2023-01-28T09:03:05;25.12;;;19.58;;
50591;SDS011;36548;50.506;30.834;2023-01-28T09:04:14;21.67;;;16.67;;
50591;SDS011;36548;50.506;30.834;2023-01-28T09:05:23;22.80;;;17.05;;
50591;SDS011;36548;50.506;30.834;2023-01-28T09:06:32;24.32;;;19.22;;
50591;SDS011;36548;50.506;30.834;2023-01-28T09:07:48;28.67;;;22.65;;
50591;SDS011;36548;50.506;30.834;2023-01-28T09:08:58;22.77;;;17.63;;
50591;SDS011;36548;50.506;30.834;2023-01-28T09:10:08;23.03;;;18.12;;
50591;SDS011;36548;50.506;30.834;2023-01-28T09:11:18;27.00;;;18.75;;
50591;SDS011;36548;50.506;30.834;2023-01-28T09:12:27;26.62;;;19.02;;
50591;SDS011;36548;50.506;30.834;2023-01-28T09:13:36;24.87;;;20.32;;
50591;SDS011;36548;50.506;30.834;2023-01-28T09:14:45;25.77;;;20.40;;
50591;SDS011;36548;50.506;30.834;2023-01-28T09:15:53;22.42;;;18.77;;
50591;SDS011;36548;50.506;30.834;2023-01-28T09:17:03;28.75;;;21.07;;
50591;SDS011;36548;50.506;30.834;2023-01-28T09:18:13;25.83;;;19.12;;
50591;SDS011;36548;50.506;30.834;2023-01-28T09:19:22;28.28;;;22.13;;
50591;SDS011;36548;50.506;30.834;2023-01-28T09:20:30;27.20;;;21.50;;
50591;SDS011;36548;50.506;30.834;2023-01-28T09:21:40;24.33;;;20.38;;
50591;SDS011;36548;50.506;30.834;2023-01-28T09:22:49;27.27;;;21.92;;
50591;SDS011;36548;50.506;30.834;2023-01-28T09:23:59;26.87;;;21.42;;
50591;SDS011;36548;50.506;30.834;2023-01-28T09:25:07;26.62;;;21.32;;
50591;SDS011;36548;50.506;30.834;2023-01-28T09:26:17;27.58;;;21.70;;
50591;SDS011;36548;50.506;30.834;2023-01-28T09:27:27;28.93;;;21.37;;
50591;SDS011;36548;50.506;30.834;2023-01-28T09:28:36;26.50;;;21.45;;
50591;SDS011;36548;50.506;30.834;2023-01-28T09:29:47;27.72;;;21.15;;
50591;SDS011;36548;50.506;30.834;2023-01-28T09:31:03;25.55;;;20.88;;
50591;SDS011;36548;50.506;30.834;2023-01-28T09:32:20;27.30;;;19.67;;
50591;SDS011;36548;50.506;30.834;2023-01-28T09:33:28;24.53;;;19.00;;
50591;SDS011;36548;50.506;30.834;2023-01-28T09:34:38;28.32;;;20.67;;
50591;SDS011;36548;50.506;30.834;2023-01-28T09:35:49;28.63;;;20.58;;
50591;SDS011;36548;50.506;30.834;2023-01-28T09:36:58;27.80;;;21.48;;
50591;SDS011;36548;50.506;30.834;2023-01-28T09:38:08;25.78;;;20.88;;
50591;SDS011;36548;50.506;30.834;2023-01-28T09:39:17;25.60;;;20.12;;
50591;SDS011;36548;50.506;30.834;2023-01-28T09:40:31;26.98;;;19.37;;
50591;SDS011;36548;50.506;30.834;2023-01-28T09:46:26;22.13;;;17.73;;
50591;SDS011;36548;50.506;30.834;2023-01-28T09:47:46;23.92;;;18.97;;
50591;SDS011;36548;50.506;30.834;2023-01-28T09:49:02;26.20;;;19.20;;
50591;SDS011;36548;50.506;30.834;2023-01-28T09:50:30;26.45;;;20.75;;
50591;SDS011;36548;50.506;30.834;2023-01-28T14:18:41;15.52;;;11.12;;
50591;SDS011;36548;50.506;30.834;2023-01-28T14:19:52;11.92;;;9.13;;
50591;SDS011;36548;50.506;30.834;2023-01-28T14:21:08;11.88;;;9.10;;
50591;SDS011;36548;50.506;30.834;2023-01-28T14:22:24;11.92;;;9.02;;
50591;SDS011;36548;50.506;30.834;2023-01-28T14:23:33;14.50;;;9.98;;
50591;SDS011;36548;50.506;30.834;2023-01-28T14:24:45;15.58;;;10.50;;
50591;SDS011;36548;50.506;30.834;2023-01-28T14:27:31;10.70;;;8.20;;
50591;SDS011;36548;50.506;30.834;2023-01-28T14:28:55;11.20;;;9.17;;
50591;SDS011;36548;50.506;30.834;2023-01-28T14:31:31;8.73;;;6.83;;
50591;SDS011;36548;50.506;30.834;2023-01-28T14:32:45;10.23;;;7.98;;
50591;SDS011;36548;50.506;30.834;2023-01-28T14:33:57;9.38;;;7.87;;
50591;SDS011;36548;50.506;30.834;2023-01-28T14:35:18;10.38;;;7.95;;
50591;SDS011;36548;50.506;30.834;2023-01-28T14:36:28;9.70;;;8.00;;
50591;SDS011;36548;50.506;30.834;2023-01-28T14:37:38;8.82;;;7.60;;
50591;SDS011;36548;50.506;30.834;2023-01-28T14:38:49;9.62;;;7.88;;
50591;SDS011;36548;50.506;30.834;2023-01-28T14:40:02;11.88;;;8.65;;
50591;SDS011;36548;50.506;30.834;2023-01-28T14:41:18;9.25;;;7.60;;
50591;SDS011;36548;50.506;30.834;2023-01-28T14:42:49;7.72;;;6.72;;
50591;SDS011;36548;50.506;30.834;2023-01-28T14:44:00;11.02;;;7.28;;
50591;SDS011;36548;50.506;30.834;2023-01-28T14:46:35;10.23;;;7.63;;
50591;SDS011;36548;50.506;30.834;2023-01-28T14:49:23;11.02;;;8.78;;
50591;SDS011;36548;50.506;30.834;2023-01-28T14:55:08;11.50;;;8.80;;
50591;SDS011;36548;50.506;30.834;2023-01-28T14:56:43;11.15;;;7.42;;
50591;SDS011;36548;50.506;30.834;2023-01-28T14:58:03;10.87;;;7.65;;
50591;SDS011;36548;50.506;30.834;2023-01-28T14:59:20;11.95;;;8.20;;
50591;SDS011;36548;50.506;30.834;2023-01-28T15:00:33;10.60;;;7.73;;
50591;SDS011;36548;50.506;30.834;2023-01-28T15:01:44;10.25;;;7.72;;
50591;SDS011;36548;50.506;30.834;2023-01-28T15:02:55;11.15;;;7.77;;
50591;SDS011;36548;50.506;30.834;2023-01-28T15:04:19;12.13;;;8.35;;
50591;SDS011;36548;50.506;30.834;2023-01-28T15:05:26;9.77;;;7.87;;
50591;SDS011;36548;50.506;30.834;2023-01-28T15:06:36;10.93;;;7.65;;
50591;SDS011;36548;50.506;30.834;2023-01-28T15:07:46;9.35;;;7.27;;
50591;SDS011;36548;50.506;30.834;2023-01-28T15:09:04;9.15;;;6.55;;
50591;SDS011;36548;50.506;30.834;2023-01-28T15:10:34;12.20;;;7.10;;
50591;SDS011;36548;50.506;30.834;2023-01-28T15:11:44;11.47;;;6.68;;
50591;SDS011;36548;50.506;30.834;2023-01-28T15:13:02;8.18;;;6.47;;
50591;SDS011;36548;50.506;30.834;2023-01-28T15:15:45;7.72;;;6.62;;
50591;SDS011;36548;50.506;30.834;2023-01-28T15:17:02;7.72;;;6.58;;
50591;SDS011;36548;50.506;30.834;2023-01-28T15:18:14;8.92;;;7.18;;
50591;SDS011;36548;50.506;30.834;2023-01-28T15:19:36;6.53;;;5.85;;
50591;SDS011;36548;50.506;30.834;2023-01-28T15:20:45;8.62;;;6.55;;
50591;SDS011;36548;50.506;30.834;2023-01-28T15:21:56;7.95;;;6.40;;
50591;SDS011;36548;50.506;30.834;2023-01-28T15:23:08;9.03;;;6.78;;
50591;SDS011;36548;50.506;30.834;2023-01-28T15:25:28;9.47;;;6.97;;
50591;SDS011;36548;50.506;30.834;2023-01-28T15:26:45;6.85;;;6.00;;
50591;SDS011;36548;50.506;30.834;2023-01-28T15:27:58;9.05;;;6.35;;
50591;SDS011;36548;50.506;30.834;2023-01-28T15:29:20;8.83;;;6.67;;
50591;SDS011;36548;50.506;30.834;2023-01-28T15:30:34;7.72;;;6.00;;
50591;SDS011;36548;50.506;30.834;2023-01-28T15:31:46;8.78;;;6.75;;
50591;SDS011;36548;50.506;30.834;2023-01-28T15:33:08;10.73;;;7.48;;
50591;SDS011;36548;50.506;30.834;2023-01-28T15:34:23;8.92;;;6.73;;
50591;SDS011;36548;50.506;30.834;2023-01-28T15:35:49;8.57;;;6.95;;
50591;SDS011;36548;50.506;30.834;2023-01-28T15:37:04;9.03;;;6.97;;
50591;SDS011;36548;50.506;30.834;2023-01-28T15:38:14;10.30;;;6.90;;
50591;SDS011;36548;50.506;30.834;2023-01-28T15:39:26;8.88;;;6.85;;
50591;SDS011;36548;50.506;30.834;2023-01-28T15:42:00;12.28;;;7.72;;
50591;SDS011;36548;50.506;30.834;2023-01-28T15:43:16;11.28;;;8.36;;
50591;SDS011;36548;50.506;30.834;2023-01-28T15:44:34;12.05;;;9.42;;
50591;SDS011;36548;50.506;30.834;2023-01-28T15:45:46;15.93;;;11.87;;
50591;SDS011;36548;50.506;30.834;2023-01-28T15:46:58;15.95;;;11.05;;
50591;SDS011;36548;50.506;30.834;2023-01-28T15:48:09;13.57;;;11.00;;
50591;SDS011;36548;50.506;30.834;2023-01-28T15:49:19;16.57;;;12.12;;